aviador You're here:

PALG Decoded Metar

KALSKAG in AK, USA
Report Time2017-08-18 13:56:00
UTC Time2017-08-18 14:20:29
Flight Rules unknown UNKNOWN
WindCalm
VisibilityN/A
Phenomena:N/A
Clouds:Overcast 070 Hf
Ceiling7,000 ft
Temp07°C (ISA -8)
Dew Point07°C (100% RH)
AAT6.3°C
QNH1003 hPa
Density Alt-417 ft
Elevation56 ft
Report Wrong Elevation
Raw Report
PALG 181356Z AUTO 00000KT OVC070 07/07 A2962 RMK AO2 SLP035
T00720067 PWINO $=

Extra information for PALG:More info

Metar Taf Metar & Taf Last 4 Metars F.Rules Stats Wind Profile Meteogram Temp Stats Airport Information Weather charts Add Link Nearby VenuesMetar ALERT Operation Metar Decoded Social comments

AIRNAV info for PALG